Harrisville, MI (48740)

10:05 AM EDT on July 30, 2016 (GMT -0400)
KMIOSCOD3 | | Change Station

Elev 582 ft 44.51 °N, 83.32 °W | Updated 2 seconds ago

Overcast
Overcast
69.4 °F
Feels Like 69.4 °F
N
16.5
Wind Variable Wind from ENE
Gusts 17.5 mph

Today
High -- | Low -- °F
--% Chance of Precip.
Yesterday
High -- | Low -- °F
Precip. -- in
Pressure 30.07 in
Visibility 10.0 miles
Clouds Overcast 2000 ft
Dew Point 63 °F
Humidity 80%
Rainfall 0.00 in
Snow Depth Not available.
6:18 AM 9:00 PM
Waning Crescent, 13% visible
METAR KOSC 301354Z AUTO 07014G18KT 10SM OVC020 22/16 A3007 RMK AO2 T02180155
Pressure 30.07 in
Visibility 10.0 miles
Clouds Overcast 2000 ft
Dew Point 63 °F
Humidity 80%
Rainfall 0.00 in
Snow Depth Not available.
6:18 AM 9:00 PM
Waning Crescent, 13% visible
METAR KOSC 301354Z AUTO 07014G18KT 10SM OVC020 22/16 A3007 RMK AO2 T02180155

10-Day Weather Forecast

Almanac

Astronomy

Jul. 30, 2016 Rise Set
Actual Time
Civil Twilight
Nautical Twilight
Astronomical Twilight
Moon
Length of Visible Light
Length of Day
Tomorrow will be .
, % of the Moon is Illuminated

Today's Extremes

State Highs State Lows

Community

WunderPhotos

Upload Photos

1,928,564 photos uploaded!

WunderBlog® & News

Nearby

Air Quality

  Air Quality AQ Index Pollutant
Not available.

Snow Depth

Station Depth Elevation

Earthquake Activity

City Distance Mag. Time & Date
Minimum magnitude displayed is 2.5.

Coastal Water Temperatures

Place Temperature

Stations

Nearby Weather Stations

Station Location Temp. Windchill Dew Point Humidity Wind Precip. Elev Updated Type
                   

Watches & Warnings

There are currently no watches in effect.